Terminal Aerodrome Forecast
Issued by NWS

Home | Current Version | Previous Version | Text Only | Print | Product List | Glossary On
Versions: 1 2 3 4 5 6 7 8 9 10 11 12 13 14 15 16 17 18 19 20 21 22 23 24 25 26 27 28 29 30 31 32 33 34 35 36 37 38 39 40
510
FTUS44 KHGX 132324
TAFUTS
TAF
KUTS 132324Z 1400/1424 15007KT P6SM FEW045
     FM140300 14007KT P6SM SCT015 BKN035
     FM140600 16007KT P6SM FEW004 BKN015
     FM141600 17009KT P6SM BKN025
     FM141900 19012KT P6SM BKN040=

USA.gov is the U.S. government's official web portal to all federal, state and local government web resources and services.